Time;durP1;ratioP1;P1;durP2;ratioP2;P2;SDS_P1;SDS_P2;PMS_P1;PMS_P2;Temp;Humidity;BMP_temperature;BMP_pressure;BME280_temperature;BME280_humidity;BME280_pressure;Samples;Min_cycle;Max_cycle;Signal;HPM_P1;HPM_P2
2023/09/17 00:02:25;;;;;;;18.40;10.40;;;;;;;17.42;76.18;101934.15;107534;1253;110978;-65
2023/09/17 00:04:53;;;;;;;21.60;9.70;;;;;;;17.43;76.15;101933.19;107540;1254;109717;-63
2023/09/17 00:07:21;;;;;;;15.90;10.00;;;;;;;17.42;75.91;101933.84;107564;1253;108228;-64
2023/09/17 00:09:49;;;;;;;20.50;9.30;;;;;;;17.41;75.96;101931.41;107519;1254;96478;-64
2023/09/17 00:12:19;;;;;;;20.30;9.70;;;;;;;17.40;76.00;101928.95;107527;1254;96552;-63
2023/09/17 00:14:49;;;;;;;19.50;9.90;;;;;;;17.39;75.87;101927.99;107575;1254;110444;-63
2023/09/17 00:17:18;;;;;;;16.80;9.40;;;;;;;17.39;75.86;101926.19;107602;1253;108722;-64
2023/09/17 00:19:46;;;;;;;25.80;10.70;;;;;;;17.41;75.83;101926.34;107542;1256;108292;-64
2023/09/17 00:22:15;;;;;;;19.70;9.50;;;;;;;17.43;75.81;101925.40;107569;1252;96603;-63
2023/09/17 00:24:43;;;;;;;30.00;10.80;;;;;;;17.44;75.87;101925.45;107565;1252;98226;-63
2023/09/17 00:27:11;;;;;;;26.30;10.10;;;;;;;17.44;75.88;101921.48;107526;1254;109398;-63
2023/09/17 00:29:40;;;;;;;16.00;9.90;;;;;;;17.42;75.91;101921.33;107488;1254;108847;-63
2023/09/17 00:32:09;;;;;;;16.90;10.30;;;;;;;17.39;75.85;101915.28;107418;1254;108177;-62
2023/09/17 00:34:37;;;;;;;21.50;9.70;;;;;;;17.37;76.12;101917.98;107457;1253;97180;-63
2023/09/17 00:37:07;;;;;;;17.30;10.10;;;;;;;17.36;76.01;101920.77;107528;1254;97020;-63
2023/09/17 00:39:35;;;;;;;14.10;9.60;;;;;;;17.36;75.92;101917.32;107511;1254;109419;-63
2023/09/17 00:42:04;;;;;;;19.80;10.00;;;;;;;17.36;75.90;101916.98;107438;1254;110300;-63
2023/09/17 00:44:33;;;;;;;17.50;9.70;;;;;;;17.35;75.87;101920.30;107529;1253;106990;-63
2023/09/17 00:47:03;;;;;;;24.80;9.70;;;;;;;17.35;75.95;101920.16;107550;1254;96564;-63
2023/09/17 00:49:32;;;;;;;18.60;10.20;;;;;;;17.36;75.89;101921.47;107574;1254;96402;-65
2023/09/17 00:52:03;;;;;;;15.50;9.30;;;;;;;17.39;75.89;101921.20;107576;1254;110702;-63
2023/09/17 00:54:31;;;;;;;18.40;9.40;;;;;;;17.42;75.99;101918.27;107566;1254;110106;-63
2023/09/17 00:57:00;;;;;;;14.60;9.30;;;;;;;17.43;75.81;101913.77;107543;1253;108278;-63
2023/09/17 00:59:30;;;;;;;16.60;9.90;;;;;;;17.43;75.69;101915.58;107583;1254;96494;-65
2023/09/17 01:01:59;;;;;;;19.20;9.60;;;;;;;17.42;75.66;101914.60;107556;1254;97023;-64
2023/09/17 01:04:28;;;;;;;14.50;9.30;;;;;;;17.42;75.65;101914.61;107539;1254;109209;-63
2023/09/17 01:06:58;;;;;;;15.90;9.50;;;;;;;17.42;75.64;101911.17;107580;1254;109542;-63
2023/09/17 01:09:28;;;;;;;16.50;10.30;;;;;;;17.42;75.62;101909.88;107563;1254;108348;-63
2023/09/17 01:11:57;;;;;;;16.90;10.30;;;;;;;17.42;75.79;101904.98;107575;1253;96564;-64
2023/09/17 01:14:26;;;;;;;20.40;10.60;;;;;;;17.42;75.69;101909.17;107579;1253;96444;-64
2023/09/17 01:16:56;;;;;;;16.80;9.60;;;;;;;17.42;75.69;101908.59;107420;1254;110104;-63
2023/09/17 01:19:28;;;;;;;20.60;9.60;;;;;;;17.44;75.68;101910.42;107576;1254;109251;-63
2023/09/17 01:22:03;;;;;;;16.10;9.60;;;;;;;17.44;75.93;101910.02;107573;1252;108716;-62
2023/09/17 01:24:40;;;;;;;21.80;11.20;;;;;;;17.40;75.90;101908.80;107565;1253;96513;-62
2023/09/17 01:27:12;;;;;;;17.50;10.20;;;;;;;17.39;75.80;101909.66;107601;1252;96392;-62
2023/09/17 01:29:42;;;;;;;13.90;10.20;;;;;;;17.39;75.82;101910.25;107531;1254;110064;-64
2023/09/17 01:32:11;;;;;;;19.90;11.90;;;;;;;17.40;75.81;101909.19;107595;1256;109891;-63
2023/09/17 01:34:42;;;;;;;26.50;14.80;;;;;;;17.40;75.81;101902.61;107485;1256;107382;-65
2023/09/17 01:37:20;;;;;;;24.90;10.50;;;;;;;17.42;75.80;101904.05;107562;1254;96516;-63
2023/09/17 01:39:56;;;;;;;17.70;9.70;;;;;;;17.44;75.78;101897.76;107563;1256;96376;-65
2023/09/17 01:42:26;;;;;;;17.90;9.10;;;;;;;17.45;75.88;101895.27;107574;1254;110325;-63
2023/09/17 01:44:58;;;;;;;22.70;10.80;;;;;;;17.46;75.97;101899.31;107557;1253;109593;-64
2023/09/17 01:47:28;;;;;;;16.60;9.90;;;;;;;17.45;75.91;101898.88;107501;1253;108401;-64
2023/09/17 01:49:58;;;;;;;14.40;9.60;;;;;;;17.44;75.79;101896.94;107550;1253;96577;-64
2023/09/17 01:52:32;;;;;;;19.00;9.70;;;;;;;17.45;75.95;101898.13;107569;1254;97023;-64
2023/09/17 01:55:02;;;;;;;15.40;9.50;;;;;;;17.45;75.82;101899.35;107586;1252;110081;-63
2023/09/17 01:57:33;;;;;;;23.10;10.40;;;;;;;17.45;75.88;101894.84;107445;1252;109941;-63
2023/09/17 02:00:16;;;;;;;16.60;9.70;;;;;;;17.46;75.97;101892.27;107589;1254;108135;-63
2023/09/17 02:02:50;;;;;;;17.30;10.00;;;;;;;17.47;75.94;101891.80;107588;1253;96572;-64
2023/09/17 02:05:21;;;;;;;18.50;9.30;;;;;;;17.47;75.92;101889.45;107592;1253;96453;-63
2023/09/17 02:07:49;;;;;;;19.10;9.50;;;;;;;17.47;75.93;101889.08;107466;1254;110683;-64
2023/09/17 02:10:18;;;;;;;15.60;9.60;;;;;;;17.47;75.97;101889.07;107534;1254;109247;-64
2023/09/17 02:12:47;;;;;;;13.70;9.90;;;;;;;17.46;76.06;101888.94;107514;1254;108060;-63
2023/09/17 02:15:15;;;;;;;14.40;9.00;;;;;;;17.46;75.95;101888.56;107535;1256;96495;-64
2023/09/17 02:17:43;;;;;;;17.40;9.90;;;;;;;17.46;75.82;101889.34;107414;1253;96541;-64
2023/09/17 02:20:12;;;;;;;15.00;9.40;;;;;;;17.44;75.82;101886.67;107550;1253;108680;-64
2023/09/17 02:22:40;;;;;;;18.90;9.80;;;;;;;17.42;75.77;101887.43;107569;1256;108739;-64
2023/09/17 02:25:10;;;;;;;21.90;10.10;;;;;;;17.40;75.95;101883.58;107571;1256;107419;-64
2023/09/17 02:27:38;;;;;;;21.40;9.90;;;;;;;17.39;75.99;101884.81;107550;1253;96476;-63
2023/09/17 02:30:08;;;;;;;14.60;9.20;;;;;;;17.37;76.01;101887.31;107450;1253;97127;-63
2023/09/17 02:32:37;;;;;;;17.70;9.00;;;;;;;17.35;76.09;101886.40;107608;1253;109457;-64
2023/09/17 02:35:07;;;;;;;18.80;9.60;;;;;;;17.33;76.12;101887.22;107583;1254;108689;-62
2023/09/17 02:37:35;;;;;;;21.80;10.00;;;;;;;17.30;76.19;101884.41;107592;1254;108115;-63
2023/09/17 02:40:08;;;;;;;17.80;10.00;;;;;;;17.28;76.25;101883.02;107597;1254;96538;-63
2023/09/17 02:42:37;;;;;;;24.90;9.80;;;;;;;17.26;76.34;101881.77;107579;1254;96494;-64
2023/09/17 02:45:08;;;;;;;21.50;9.00;;;;;;;17.22;76.24;101881.01;107564;1254;111069;-62
2023/09/17 02:47:40;;;;;;;22.20;9.10;;;;;;;17.16;76.15;101878.89;107575;1256;110148;-63
2023/09/17 02:50:09;;;;;;;19.20;9.70;;;;;;;17.13;76.28;101876.67;107522;1253;107379;-63
2023/09/17 02:52:39;;;;;;;14.30;9.60;;;;;;;17.11;76.48;101876.94;107561;1254;96597;-63
2023/09/17 02:55:08;;;;;;;21.70;10.00;;;;;;;17.08;76.51;101876.59;107593;1254;96482;-65
2023/09/17 02:57:36;;;;;;;19.00;10.20;;;;;;;17.05;76.51;101880.33;107575;1253;110051;-63
2023/09/17 03:00:10;;;;;;;19.50;9.70;;;;;;;17.03;76.55;101881.98;107557;1254;109263;-63
2023/09/17 03:02:40;;;;;;;32.10;10.10;;;;;;;17.01;76.33;101887.83;107577;1253;107593;-65
2023/09/17 03:05:10;;;;;;;15.60;9.50;;;;;;;16.98;76.33;101890.61;107562;1253;96514;-67
2023/09/17 03:07:41;;;;;;;18.80;8.80;;;;;;;16.98;76.42;101893.73;107577;1253;97035;-63
2023/09/17 03:10:12;;;;;;;25.40;9.40;;;;;;;16.96;76.32;101895.52;107586;1254;111369;-63
2023/09/17 03:12:42;;;;;;;20.90;9.30;;;;;;;16.93;76.18;101895.98;107391;1253;109263;-63
2023/09/17 03:15:10;;;;;;;16.20;9.10;;;;;;;16.89;76.20;101896.87;107520;1252;108669;-64
2023/09/17 03:17:40;;;;;;;15.80;8.40;;;;;;;16.86;76.26;101897.05;107532;1252;96360;-66
2023/09/17 03:20:22;;;;;;;14.40;9.10;;;;;;;16.86;76.39;101897.05;107588;1254;97099;-65
2023/09/17 03:22:50;;;;;;;17.00;9.10;;;;;;;16.85;76.63;101894.56;107590;1254;109760;-65
2023/09/17 03:25:19;;;;;;;25.50;9.00;;;;;;;16.85;76.67;101897.11;107585;1256;109160;-63
2023/09/17 03:27:48;;;;;;;20.80;9.40;;;;;;;16.86;76.70;101894.87;107552;1252;107275;-64
2023/09/17 03:30:18;;;;;;;18.00;8.80;;;;;;;16.85;76.78;101892.55;107397;1253;97865;-65
2023/09/17 03:32:46;;;;;;;19.80;9.90;;;;;;;16.85;76.75;101898.02;107381;1252;98393;-63
2023/09/17 03:35:33;;;;;;;13.80;8.10;;;;;;;16.85;76.63;101901.08;107487;1254;111429;-64
2023/09/17 03:38:02;;;;;;;16.80;8.50;;;;;;;16.82;76.65;101901.19;107609;1253;109738;-64
2023/09/17 03:40:31;;;;;;;15.80;9.60;;;;;;;16.79;76.61;101904.59;107423;1253;107227;-65
2023/09/17 03:43:00;;;;;;;17.50;8.60;;;;;;;16.79;76.84;101906.06;107600;1252;97960;-63
2023/09/17 03:45:28;;;;;;;12.10;8.20;;;;;;;16.78;76.92;101910.13;107523;1253;97915;-64
2023/09/17 03:47:57;;;;;;;21.10;8.90;;;;;;;16.77;76.98;101910.63;107578;1254;112820;-64
2023/09/17 03:50:27;;;;;;;19.30;8.70;;;;;;;16.77;77.11;101909.30;107452;1253;109968;-63
2023/09/17 03:52:58;;;;;;;17.30;8.80;;;;;;;16.79;77.08;101906.80;107539;1253;107564;-62
2023/09/17 03:55:28;;;;;;;17.80;9.40;;;;;;;16.81;77.23;101908.40;107415;1254;97944;-63
2023/09/17 03:57:57;;;;;;;19.70;9.40;;;;;;;16.83;77.33;101910.70;107453;1253;98379;-65
2023/09/17 04:00:26;;;;;;;13.10;9.00;;;;;;;16.86;77.23;101909.84;107558;1254;111542;-64
2023/09/17 04:02:55;;;;;;;19.50;8.80;;;;;;;16.88;77.13;101907.13;107578;1254;109233;-65
2023/09/17 04:05:24;;;;;;;18.80;9.00;;;;;;;16.92;77.11;101906.95;107464;1253;108066;-64
2023/09/17 04:07:52;;;;;;;19.10;8.30;;;;;;;16.96;76.98;101908.95;107547;1254;97903;-64
2023/09/17 04:10:21;;;;;;;23.20;9.10;;;;;;;16.99;76.82;101906.84;107525;1252;97832;-64
2023/09/17 04:12:49;;;;;;;28.80;9.20;;;;;;;17.03;76.64;101911.88;107585;1252;111651;-65
2023/09/17 04:15:20;;;;;;;20.90;9.50;;;;;;;17.06;76.42;101911.29;107546;1256;108792;-64
2023/09/17 04:17:50;;;;;;;19.50;9.00;;;;;;;17.09;76.01;101910.83;107523;1253;107929;-64
2023/09/17 04:20:20;;;;;;;12.90;8.80;;;;;;;17.12;75.67;101913.96;107584;1254;97822;-63
2023/09/17 04:22:50;;;;;;;16.60;8.60;;;;;;;17.13;75.37;101912.03;107606;1253;97735;-64
2023/09/17 04:25:20;;;;;;;17.00;8.40;;;;;;;17.15;75.26;101917.57;107619;1253;111413;-64
2023/09/17 04:27:51;;;;;;;17.60;8.80;;;;;;;17.15;74.49;101916.17;107553;1254;110492;-64
2023/09/17 04:30:22;;;;;;;16.10;7.90;;;;;;;17.17;74.40;101917.07;107443;1257;106738;-63
2023/09/17 04:32:54;;;;;;;25.30;9.50;;;;;;;17.22;74.20;101919.33;107539;1254;97840;-64
2023/09/17 04:35:22;;;;;;;14.00;7.40;;;;;;;17.25;73.85;101921.16;107507;1253;97851;-63
2023/09/17 04:37:51;;;;;;;20.90;8.40;;;;;;;17.30;73.78;101922.34;107417;1253;111116;-64
2023/09/17 04:40:28;;;;;;;19.40;8.30;;;;;;;17.32;73.46;101919.24;107487;1254;111018;-62
2023/09/17 04:42:58;;;;;;;11.00;8.00;;;;;;;17.34;73.14;101917.94;107559;1252;107446;-63
2023/09/17 04:45:37;;;;;;;12.00;8.10;;;;;;;17.37;72.98;101916.48;107405;1253;97838;-63
2023/09/17 04:48:11;;;;;;;17.90;7.60;;;;;;;17.42;72.24;101920.23;107413;1253;97852;-64
2023/09/17 04:50:42;;;;;;;15.50;7.50;;;;;;;17.40;71.90;101916.02;107489;1254;111358;-64
2023/09/17 04:53:15;;;;;;;13.40;7.40;;;;;;;17.42;71.80;101917.65;107600;1252;108998;-63
2023/09/17 04:55:45;;;;;;;13.10;7.70;;;;;;;17.42;71.49;101910.62;107558;1253;108449;-63
2023/09/17 04:58:14;;;;;;;17.40;8.30;;;;;;;17.44;71.46;101914.42;107552;1253;97700;-63
2023/09/17 05:00:44;;;;;;;16.90;8.30;;;;;;;17.47;71.62;101910.57;107573;1253;98356;-63
2023/09/17 05:03:12;;;;;;;21.10;9.30;;;;;;;17.53;71.55;101915.33;107605;1253;110463;-63
2023/09/17 05:05:42;;;;;;;12.70;8.20;;;;;;;17.60;71.60;101913.18;107542;1253;109882;-64
2023/09/17 05:08:10;;;;;;;16.60;8.50;;;;;;;17.67;71.44;101917.41;107551;1253;107983;-65
2023/09/17 05:10:39;;;;;;;13.20;8.10;;;;;;;17.72;71.36;101918.44;107553;1253;98601;-65
2023/09/17 05:13:08;;;;;;;15.20;8.10;;;;;;;17.81;71.52;101923.96;107435;1253;97874;-66
2023/09/17 05:15:38;;;;;;;17.60;8.70;;;;;;;17.91;71.54;101924.80;107566;1254;111723;-64
2023/09/17 05:18:09;;;;;;;16.30;8.60;;;;;;;18.01;71.47;101927.03;107445;1253;108435;-63
2023/09/17 05:20:43;;;;;;;22.60;10.50;;;;;;;18.14;71.39;101931.18;107416;1253;108277;-63
2023/09/17 05:23:13;;;;;;;13.80;8.70;;;;;;;18.24;71.22;101927.42;107563;1253;97740;-64
2023/09/17 05:25:41;;;;;;;18.70;9.30;;;;;;;18.34;71.00;101927.48;107568;1253;97821;-64
2023/09/17 05:28:10;;;;;;;21.60;8.60;;;;;;;18.43;70.60;101932.21;107599;1253;109815;-65
2023/09/17 05:30:40;;;;;;;19.00;8.10;;;;;;;18.49;69.73;101930.01;107486;1254;109264;-64
2023/09/17 05:33:10;;;;;;;17.20;8.20;;;;;;;18.53;69.18;101935.65;107450;1254;108551;-64
2023/09/17 05:35:39;;;;;;;16.70;8.20;;;;;;;18.59;68.69;101939.09;107576;1254;97850;-64
2023/09/17 05:38:08;;;;;;;16.30;6.80;;;;;;;18.65;68.63;101933.75;107573;1254;97727;-64
2023/09/17 05:40:37;;;;;;;12.10;7.30;;;;;;;18.73;68.30;101936.17;107580;1254;111985;-65
2023/09/17 05:43:05;;;;;;;19.70;8.50;;;;;;;18.78;67.65;101938.29;107598;1253;110408;-66
2023/09/17 05:45:34;;;;;;;11.20;7.40;;;;;;;18.83;66.74;101941.85;107623;1253;108268;-64
2023/09/17 05:48:04;;;;;;;11.30;6.30;;;;;;;18.86;65.60;101942.42;107486;1253;97846;-65
2023/09/17 05:50:33;;;;;;;15.90;7.30;;;;;;;18.91;65.56;101940.81;107493;1253;98376;-64
2023/09/17 05:53:01;;;;;;;21.90;7.30;;;;;;;18.98;65.45;101937.42;107624;1254;111680;-64
2023/09/17 05:55:31;;;;;;;12.60;7.20;;;;;;;19.05;64.96;101943.90;107573;1253;108947;-64
2023/09/17 05:58:01;;;;;;;9.90;6.50;;;;;;;19.14;64.51;101942.91;107595;1254;108404;-64
2023/09/17 06:00:29;;;;;;;11.40;5.80;;;;;;;19.21;63.96;101943.28;107562;1253;97858;-64
2023/09/17 06:02:57;;;;;;;8.40;6.30;;;;;;;19.27;63.52;101945.76;107560;1253;97822;-63
2023/09/17 06:05:25;;;;;;;19.10;7.50;;;;;;;19.34;63.03;101944.66;107582;1253;110797;-64
2023/09/17 06:07:54;;;;;;;16.70;7.40;;;;;;;19.41;63.21;101946.96;107511;1254;110348;-64
2023/09/17 06:10:26;;;;;;;9.70;5.90;;;;;;;19.49;62.59;101946.10;107437;1252;108411;-64
2023/09/17 06:12:54;;;;;;;13.20;6.80;;;;;;;19.55;62.03;101942.95;107606;1253;97929;-64
2023/09/17 06:15:23;;;;;;;19.30;6.00;;;;;;;19.61;61.81;101943.70;107606;1252;98459;-65
2023/09/17 06:17:51;;;;;;;11.80;6.10;;;;;;;19.68;61.67;101949.17;107614;1256;111277;-65
2023/09/17 06:20:19;;;;;;;24.10;5.80;;;;;;;19.76;61.87;101942.50;107522;1254;109386;-65
2023/09/17 06:22:48;;;;;;;15.10;5.70;;;;;;;19.85;61.59;101947.67;107586;1253;108607;-64
2023/09/17 06:25:17;;;;;;;9.90;6.10;;;;;;;19.95;61.57;101946.23;107591;1252;97822;-64
2023/09/17 06:27:46;;;;;;;12.90;5.80;;;;;;;20.08;61.05;101954.71;107592;1252;98649;-64
2023/09/17 06:30:15;;;;;;;14.10;5.90;;;;;;;20.16;60.86;101957.61;107601;1252;111539;-64
2023/09/17 06:32:44;;;;;;;21.60;6.80;;;;;;;20.27;60.88;101960.91;107441;1253;108665;-62
2023/09/17 06:35:12;;;;;;;9.30;5.60;;;;;;;20.39;60.42;101964.33;107391;1254;108544;-64
2023/09/17 06:37:41;;;;;;;19.40;6.30;;;;;;;20.49;59.67;101966.16;107525;1253;97841;-65
2023/09/17 06:40:10;;;;;;;12.60;5.90;;;;;;;20.59;59.81;101967.03;107464;1256;97871;-63
2023/09/17 06:42:39;;;;;;;11.80;5.50;;;;;;;20.74;59.77;101970.84;107480;1253;110884;-64
2023/09/17 06:45:09;;;;;;;15.50;5.80;;;;;;;20.83;58.39;101967.25;107495;1253;110023;-65
2023/09/17 06:47:37;;;;;;;12.90;5.70;;;;;;;20.94;58.58;101970.98;107478;1253;109436;-65
2023/09/17 06:50:07;;;;;;;14.30;6.60;;;;;;;21.09;58.72;101967.25;107419;1253;97778;-64
2023/09/17 06:52:35;;;;;;;15.50;5.60;;;;;;;21.26;58.25;101965.98;107581;1254;97854;-63
2023/09/17 06:55:04;;;;;;;15.00;5.90;;;;;;;21.43;58.27;101971.90;107590;1256;110529;-66
2023/09/17 06:57:33;;;;;;;13.30;5.70;;;;;;;21.58;57.66;101968.80;107584;1254;110053;-64
2023/09/17 07:00:01;;;;;;;11.00;6.30;;;;;;;21.72;57.42;101971.73;107551;1254;107570;-64
2023/09/17 07:02:29;;;;;;;9.70;5.60;;;;;;;21.86;56.93;101969.82;107582;1252;97837;-64
2023/09/17 07:05:00;;;;;;;13.30;5.20;;;;;;;22.01;56.63;101969.53;107576;1252;97858;-64
2023/09/17 07:07:29;;;;;;;15.50;6.00;;;;;;;22.16;56.62;101970.89;107563;1253;111464;-65
2023/09/17 07:09:57;;;;;;;19.10;5.50;;;;;;;22.29;56.38;101971.66;107594;1254;109034;-63
2023/09/17 07:12:26;;;;;;;8.40;5.70;;;;;;;22.38;55.02;101967.30;107558;1253;108809;-64
2023/09/17 07:14:54;;;;;;;12.20;5.50;;;;;;;22.44;54.74;101967.18;107560;1254;97886;-64
2023/09/17 07:17:22;;;;;;;16.00;5.40;;;;;;;22.51;54.46;101967.63;107575;1253;97714;-65
2023/09/17 07:19:50;;;;;;;15.30;5.60;;;;;;;22.56;54.07;101967.65;107565;1256;111451;-64
2023/09/17 07:22:19;;;;;;;12.30;5.10;;;;;;;22.60;53.71;101968.91;107530;1254;109779;-66
2023/09/17 07:24:47;;;;;;;14.40;5.40;;;;;;;22.68;53.16;101972.39;107590;1253;108520;-65
2023/09/17 07:27:15;;;;;;;8.80;5.50;;;;;;;22.76;53.28;101973.95;107589;1254;97813;-65
2023/09/17 07:29:45;;;;;;;15.40;5.30;;;;;;;22.82;51.66;101976.95;107542;1253;97708;-64
2023/09/17 07:32:14;;;;;;;7.90;4.60;;;;;;;22.85;52.40;101972.55;107584;1252;111176;-64
2023/09/17 07:34:42;;;;;;;8.50;4.70;;;;;;;22.87;50.75;101973.05;107588;1254;108431;-63
2023/09/17 07:37:11;;;;;;;11.30;5.20;;;;;;;22.86;51.38;101970.42;107573;1254;107526;-65
2023/09/17 07:39:39;;;;;;;13.80;4.70;;;;;;;22.84;51.34;101969.70;107551;1254;97877;-63
2023/09/17 07:42:08;;;;;;;16.50;4.90;;;;;;;22.84;51.79;101969.46;107504;1254;97863;-63
2023/09/17 07:44:36;;;;;;;7.20;5.00;;;;;;;22.87;51.29;101964.95;107523;1256;111245;-69
2023/09/17 07:47:06;;;;;;;13.60;5.10;;;;;;;22.87;51.46;101966.05;107493;1253;110305;-64
2023/09/17 07:49:36;;;;;;;7.90;4.20;;;;;;;22.90;51.54;101961.40;107537;1252;106823;-64
2023/09/17 07:52:06;;;;;;;5.30;4.20;;;;;;;22.97;50.91;101962.93;107472;1253;97827;-64
2023/09/17 07:54:41;;;;;;;9.20;4.20;;;;;;;23.04;50.59;101964.92;107505;1256;97756;-66
2023/09/17 07:57:11;;;;;;;9.30;4.00;;;;;;;23.07;49.00;101964.82;107526;1254;111440;-64
2023/09/17 07:59:40;;;;;;;10.10;3.60;;;;;;;23.03;48.53;101964.49;107628;1254;109073;-65
2023/09/17 08:02:09;;;;;;;5.80;4.30;;;;;;;22.98;48.72;101963.21;107552;1252;107445;-63
2023/09/17 08:04:38;;;;;;;9.40;4.00;;;;;;;23.02;48.71;101963.77;107573;1253;98044;-65
2023/09/17 08:07:07;;;;;;;10.60;4.30;;;;;;;23.11;49.15;101955.39;107550;1253;97734;-65
2023/09/17 08:09:36;;;;;;;10.70;4.30;;;;;;;23.20;48.48;101956.46;107552;1254;111175;-65
2023/09/17 08:12:05;;;;;;;6.70;3.50;;;;;;;23.31;47.26;101956.10;107508;1254;109711;-65
2023/09/17 08:14:34;;;;;;;5.50;3.70;;;;;;;23.37;46.92;101954.05;107568;1252;108464;-65
2023/09/17 08:17:04;;;;;;;10.90;3.00;;;;;;;23.40;47.10;101950.16;107564;1254;97873;-64
2023/09/17 08:19:32;;;;;;;5.70;3.20;;;;;;;23.46;46.63;101950.16;107641;1254;97727;-64
2023/09/17 08:22:01;;;;;;;10.10;3.90;;;;;;;23.53;46.19;101943.13;107583;1254;110851;-65
2023/09/17 08:24:30;;;;;;;9.70;3.90;;;;;;;23.66;47.17;101937.73;107543;1254;110031;-67
2023/09/17 08:26:58;;;;;;;9.40;3.70;;;;;;;23.83;47.23;101938.41;107535;1254;108357;-63
2023/09/17 08:29:26;;;;;;;5.40;3.20;;;;;;;23.99;46.81;101937.27;107477;1253;97836;-65
2023/09/17 08:31:58;;;;;;;10.60;3.70;;;;;;;24.11;46.88;101936.88;107531;1253;97864;-65
2023/09/17 08:34:26;;;;;;;6.90;3.80;;;;;;;24.27;47.25;101935.45;107559;1256;111435;-65
2023/09/17 08:36:55;;;;;;;13.40;3.40;;;;;;;24.45;45.43;101928.23;107548;1254;109729;-64
2023/09/17 08:39:25;;;;;;;5.60;3.60;;;;;;;24.57;43.46;101930.52;107561;1254;108153;-64
2023/09/17 08:41:54;;;;;;;7.60;3.70;;;;;;;24.63;43.21;101927.38;107573;1254;97713;-64
2023/09/17 08:44:22;;;;;;;13.20;3.90;;;;;;;24.81;43.08;101927.98;107573;1256;99008;-63
2023/09/17 08:46:53;;;;;;;6.90;3.30;;;;;;;25.01;41.83;101924.25;107614;1253;112048;-65
2023/09/17 08:49:22;;;;;;;8.00;3.40;;;;;;;25.16;41.67;101925.55;107537;1254;109335;-64
2023/09/17 08:51:55;;;;;;;8.30;3.70;;;;;;;25.32;42.17;101923.83;107549;1252;107519;-64
2023/09/17 08:54:33;;;;;;;13.20;3.50;;;;;;;25.55;41.47;101919.80;107523;1256;97941;-65
2023/09/17 08:57:03;;;;;;;7.30;3.40;;;;;;;25.81;39.90;101920.02;107617;1252;97810;-64
2023/09/17 08:59:38;;;;;;;10.80;3.80;;;;;;;26.02;40.44;101917.88;107589;1254;112401;-65
2023/09/17 09:02:15;;;;;;;11.00;4.00;;;;;;;26.28;38.88;101922.27;107563;1254;109333;-64
2023/09/17 09:04:47;;;;;;;8.80;3.80;;;;;;;26.46;38.14;101918.17;107534;1253;108812;-63
2023/09/17 09:07:16;;;;;;;12.40;3.40;;;;;;;26.69;37.38;101920.88;107560;1252;97710;-64
2023/09/17 09:09:46;;;;;;;13.40;4.40;;;;;;;26.95;38.45;101917.59;107581;1256;98383;-63
2023/09/17 09:12:15;;;;;;;6.20;4.00;;;;;;;27.31;38.11;101912.51;107579;1254;112027;-65
2023/09/17 09:14:44;;;;;;;12.50;3.20;;;;;;;27.67;36.33;101914.64;107538;1254;108654;-64
2023/09/17 09:17:13;;;;;;;10.70;3.40;;;;;;;28.00;33.72;101913.42;107560;1256;108799;-64
2023/09/17 09:19:42;;;;;;;6.20;3.70;;;;;;;28.42;34.12;101909.66;107542;1254;97829;-64
2023/09/17 09:22:10;;;;;;;10.30;3.30;;;;;;;29.08;34.01;101909.65;107576;1253;97709;-65
2023/09/17 09:24:48;;;;;;;11.70;3.30;;;;;;;29.31;33.12;101916.68;107561;1253;112206;-64
2023/09/17 09:27:17;;;;;;;8.20;3.60;;;;;;;28.89;33.53;101914.58;107610;1254;109007;-64
2023/09/17 09:29:45;;;;;;;13.30;3.50;;;;;;;28.47;34.64;101916.59;107503;1256;108264;-64
2023/09/17 09:32:17;;;;;;;10.50;4.40;;;;;;;28.22;35.42;101915.80;107526;1254;97839;-65
2023/09/17 09:34:47;;;;;;;9.00;3.10;;;;;;;28.48;36.04;101909.05;107537;1254;97845;-64
2023/09/17 09:37:23;;;;;;;5.80;3.00;;;;;;;29.55;35.72;101905.55;107540;1254;111245;-65
2023/09/17 09:39:52;;;;;;;6.90;3.10;;;;;;;30.45;33.54;101906.30;107554;1254;109934;-64
2023/09/17 09:42:22;;;;;;;10.20;3.90;;;;;;;30.69;33.29;101903.13;107538;1254;108061;-64
2023/09/17 09:44:51;;;;;;;7.30;3.10;;;;;;;30.52;33.99;101907.20;107544;1253;97687;-64
2023/09/17 09:47:25;;;;;;;8.60;3.60;;;;;;;30.42;33.97;101906.35;107585;1254;97830;-66
2023/09/17 09:49:54;;;;;;;6.20;3.00;;;;;;;31.06;33.24;101903.65;107571;1254;111919;-64
2023/09/17 09:52:26;;;;;;;5.50;3.50;;;;;;;31.01;33.52;101901.15;107566;1253;108734;-65
2023/09/17 09:54:54;;;;;;;7.40;3.20;;;;;;;30.63;33.99;101896.95;107548;1256;107917;-64
2023/09/17 09:57:25;;;;;;;5.90;2.90;;;;;;;30.26;34.22;101895.33;107518;1253;97854;-64
2023/09/17 09:59:54;;;;;;;9.40;3.40;;;;;;;29.90;34.10;101891.07;107582;1253;97716;-64
2023/09/17 10:02:23;;;;;;;6.60;3.40;;;;;;;30.60;33.95;101888.92;107570;1253;111838;-64
2023/09/17 10:04:52;;;;;;;7.90;3.00;;;;;;;31.71;32.25;101887.38;107583;1253;110195;-63
2023/09/17 10:07:21;;;;;;;8.80;3.00;;;;;;;32.49;31.79;101884.23;107076;1254;655252;-63
2023/09/17 10:10:18;;;;;;;5.50;2.50;;;;;;;32.22;31.20;101885.69;107545;1254;97862;-65
2023/09/17 10:12:46;;;;;;;6.90;2.80;;;;;;;32.06;30.42;101883.98;107509;1254;98398;-63
2023/09/17 10:15:15;;;;;;;8.40;2.80;;;;;;;32.77;29.97;101882.98;107493;1254;112078;-64
2023/09/17 10:17:46;;;;;;;4.40;2.70;;;;;;;33.61;28.59;101881.41;107598;1253;110184;-64
2023/09/17 10:20:15;;;;;;;15.80;3.40;;;;;;;34.44;27.49;101875.89;107555;1254;107047;-64
2023/09/17 10:22:46;;;;;;;8.50;2.50;;;;;;;35.36;27.65;101871.46;107540;1254;97730;-64
2023/09/17 10:25:17;;;;;;;8.70;2.80;;;;;;;36.04;24.95;101875.94;107555;1254;97707;-65
2023/09/17 10:27:49;;;;;;;8.60;3.00;;;;;;;35.57;24.50;101876.04;107559;1254;111652;-64
2023/09/17 10:30:18;;;;;;;8.60;2.90;;;;;;;35.86;24.17;101870.16;107510;1253;109743;-65
2023/09/17 10:32:48;;;;;;;9.80;2.70;;;;;;;36.32;23.89;101862.77;107556;1253;108388;-65
2023/09/17 10:35:17;;;;;;;7.10;2.20;;;;;;;36.79;23.46;101862.53;107540;1252;97864;-66
2023/09/17 10:37:47;;;;;;;9.50;2.70;;;;;;;37.20;23.53;101853.73;107528;1253;97851;-64
2023/09/17 10:40:16;;;;;;;8.70;2.60;;;;;;;37.58;22.35;101854.63;107537;1258;112174;-65
2023/09/17 10:42:46;;;;;;;13.00;2.80;;;;;;;37.81;22.17;101848.42;107563;1253;110301;-65
2023/09/17 10:45:14;;;;;;;14.20;2.60;;;;;;;38.21;22.70;101840.83;107604;1252;108712;-65
2023/09/17 10:47:47;;;;;;;6.00;2.50;;;;;;;38.72;21.01;101853.98;107476;1253;97863;-65
2023/09/17 10:50:16;;;;;;;9.30;3.60;;;;;;;39.09;19.98;101847.73;107510;1253;97718;-65
2023/09/17 10:52:44;;;;;;;5.40;2.10;;;;;;;39.34;19.76;101847.94;107551;1256;110647;-65
2023/09/17 10:55:12;;;;;;;6.70;2.40;;;;;;;39.55;19.57;101844.35;107528;1253;109313;-65
2023/09/17 10:57:45;;;;;;;7.40;2.30;;;;;;;39.77;20.26;101837.96;107501;1253;108258;-65
2023/09/17 11:00:18;;;;;;;5.50;2.10;;;;;;;40.03;19.00;101837.65;107576;1254;97829;-65
2023/09/17 11:02:54;;;;;;;5.90;2.40;;;;;;;39.84;18.71;101833.39;107504;1253;97857;-65
2023/09/17 11:05:27;;;;;;;5.90;2.50;;;;;;;39.98;19.28;101832.23;107612;1254;111133;-65
2023/09/17 11:08:02;;;;;;;4.50;2.20;;;;;;;40.12;19.38;101827.89;107548;1253;108706;-65
2023/09/17 11:10:31;;;;;;;6.40;2.40;;;;;;;39.96;19.31;101829.45;107519;1256;108195;-65
2023/09/17 11:13:00;;;;;;;5.00;2.30;;;;;;;40.34;19.35;101831.96;107551;1253;97928;-65
2023/09/17 11:15:29;;;;;;;5.00;2.10;;;;;;;40.54;18.29;101825.13;107602;1254;97866;-65
2023/09/17 11:18:00;;;;;;;5.70;1.90;;;;;;;40.36;17.89;101823.08;107548;1254;111775;-65
2023/09/17 11:20:29;;;;;;;6.40;2.20;;;;;;;40.02;17.61;101828.33;107537;1254;109961;-65